createdAt,value
2019-05-16T10:10:33.626Z,15.08
2019-05-16T10:13:08.018Z,15.58
2019-05-16T10:15:42.058Z,15.00
2019-05-16T10:18:16.881Z,15.25
2019-05-16T10:20:51.158Z,15.25
2019-05-16T10:23:25.345Z,14.85
2019-05-16T10:25:59.445Z,14.35
2019-05-16T10:28:33.815Z,15.38
2019-05-16T10:31:08.282Z,14.78
2019-05-16T10:33:42.702Z,13.68
2019-05-16T10:36:21.232Z,13.00
2019-05-16T10:38:53.204Z,13.62
2019-05-16T10:41:27.524Z,12.58
2019-05-16T10:44:03.222Z,13.50
2019-05-16T10:46:37.807Z,13.20
2019-05-16T10:49:12.412Z,13.00
2019-05-16T10:51:47.158Z,12.95
2019-05-16T10:54:21.899Z,12.88
2019-05-16T10:56:57.661Z,12.23
2019-05-16T11:00:01.948Z,12.20
2019-05-16T11:02:07.972Z,11.83
2019-05-16T11:04:57.375Z,12.15
2019-05-16T11:07:19.117Z,12.10
2019-05-16T11:09:59.348Z,12.30
2019-05-16T11:12:45.868Z,11.68
2019-05-16T11:15:07.869Z,11.20
2019-05-16T11:17:41.386Z,11.55
2019-05-16T11:20:19.642Z,11.38
2019-05-16T11:22:51.690Z,11.50
2019-05-16T11:25:32.261Z,11.50
2019-05-16T11:28:01.840Z,11.50
2019-05-16T11:30:37.603Z,11.33
2019-05-16T11:33:12.081Z,11.00
2019-05-16T11:35:47.585Z,10.78
2019-05-16T11:38:22.560Z,11.18
2019-05-16T11:40:56.980Z,10.55
2019-05-16T11:43:31.213Z,10.40
2019-05-16T11:46:05.214Z,10.72
2019-05-16T11:48:39.448Z,10.93
2019-05-16T11:51:13.678Z,10.93
2019-05-16T11:53:47.858Z,10.28
2019-05-16T11:56:22.131Z,10.38
2019-05-16T11:58:57.051Z,10.78
2019-05-16T12:01:31.355Z,10.32
2019-05-16T12:04:07.938Z,10.08
2019-05-16T12:06:41.719Z,10.10
2019-05-16T12:09:17.815Z,10.03
2019-05-16T12:12:02.617Z,9.48
2019-05-16T12:14:28.010Z,9.90
2019-05-16T12:17:02.192Z,10.78
2019-05-16T12:19:43.482Z,11.12
2019-05-16T12:22:12.760Z,11.05
2019-05-16T12:24:47.715Z,10.70
2019-05-16T12:27:22.115Z,10.60
2019-05-16T12:29:58.988Z,9.93
2019-05-16T12:32:32.221Z,10.15
2019-05-16T12:35:06.677Z,10.32
2019-05-16T12:37:40.774Z,10.58
2019-05-16T12:40:15.337Z,10.18
2019-05-16T12:42:49.390Z,10.53
2019-05-16T12:45:23.872Z,9.90
2019-05-16T12:47:57.909Z,9.98
2019-05-16T12:50:32.261Z,10.78
2019-05-16T12:53:07.985Z,9.93
2019-05-16T12:55:42.667Z,10.00
2019-05-16T12:58:24.963Z,10.50
2019-05-16T13:00:54.936Z,9.80
2019-05-16T13:03:28.556Z,9.43
2019-05-16T13:06:02.661Z,10.55
2019-05-16T13:08:37.564Z,9.80
2019-05-16T13:11:12.040Z,10.32
2019-05-16T13:14:02.553Z,10.30
2019-05-16T13:16:23.810Z,9.38
2019-05-16T13:18:57.829Z,9.73
2019-05-16T13:21:32.163Z,9.80
2019-05-16T13:24:07.024Z,9.85
2019-05-16T13:26:41.360Z,9.53
2019-05-16T13:29:18.144Z,9.60
2019-05-16T13:31:57.065Z,12.05
2019-05-16T13:34:31.367Z,11.93
2019-05-16T13:37:07.556Z,12.43
2019-05-16T13:39:41.754Z,12.85
2019-05-16T13:42:16.668Z,13.03
2019-05-16T13:44:50.983Z,12.95
2019-05-16T13:47:26.838Z,12.03
2019-05-16T13:50:01.065Z,13.13
2019-05-16T13:52:36.575Z,12.28
2019-05-16T13:55:11.368Z,12.95
2019-05-16T13:57:45.496Z,12.70
2019-05-16T14:00:20.056Z,13.32
2019-05-16T14:02:54.342Z,13.15
2019-05-16T14:05:28.653Z,14.35
2019-05-16T14:08:02.894Z,14.35
2019-05-16T14:10:37.840Z,13.72
2019-05-16T14:13:16.376Z,14.35
2019-05-16T14:15:48.322Z,14.80
2019-05-16T14:18:22.660Z,15.18
2019-05-16T14:20:57.305Z,13.95
2019-05-16T14:23:31.543Z,13.80
2019-05-16T14:26:07.150Z,13.72
2019-05-16T14:28:44.643Z,13.53
2019-05-16T14:31:18.697Z,13.95
2019-05-16T14:33:53.267Z,13.53
2019-05-16T14:36:28.052Z,14.47
2019-05-16T14:39:03.761Z,13.55
2019-05-16T14:41:38.648Z,14.25
2019-05-16T14:44:12.879Z,14.40
2019-05-16T14:46:47.617Z,15.38
2019-05-16T14:49:22.090Z,14.07
2019-05-16T14:51:58.021Z,13.62
2019-05-16T14:54:31.939Z,14.35
2019-05-16T14:57:06.354Z,13.85
2019-05-16T14:59:41.654Z,13.53
2019-05-16T15:02:18.126Z,13.70
2019-05-16T15:04:51.724Z,13.03
2019-05-16T15:07:27.709Z,13.40
2019-05-16T15:10:01.837Z,14.15
2019-05-16T15:12:37.678Z,13.43
2019-05-16T15:15:21.156Z,13.20
2019-05-16T15:17:53.289Z,13.43
2019-05-16T15:20:28.082Z,13.05
2019-05-16T15:23:02.451Z,12.95
2019-05-16T15:25:38.052Z,14.45
2019-05-16T15:28:12.364Z,14.25
2019-05-16T15:30:47.003Z,13.93
2019-05-16T15:33:21.040Z,13.32
2019-05-16T15:35:57.516Z,13.80
2019-05-16T15:38:30.415Z,14.63
2019-05-16T15:41:04.466Z,13.38
2019-05-16T15:43:38.651Z,14.50
2019-05-16T15:46:12.952Z,13.25
2019-05-16T15:48:48.765Z,14.00
2019-05-16T15:51:23.996Z,13.80
2019-05-16T15:53:59.253Z,13.10
2019-05-16T15:56:33.962Z,13.15
2019-05-16T15:59:10.050Z,13.00
2019-05-16T16:01:47.173Z,13.13
2019-05-16T16:04:20.196Z,12.65
2019-05-16T16:06:54.348Z,11.93
2019-05-16T16:09:28.485Z,12.25
2019-05-16T16:12:02.678Z,12.13
2019-05-16T16:14:36.921Z,11.40
2019-05-16T16:17:12.447Z,11.73
2019-05-16T16:19:47.150Z,11.20
2019-05-16T16:25:26.792Z,10.82
2019-05-16T16:28:01.547Z,10.63
2019-05-16T16:30:37.383Z,10.85
2019-05-16T16:33:24.531Z,9.78
2019-05-16T16:35:48.197Z,10.50
2019-05-16T16:38:22.482Z,9.80
2019-05-16T16:40:57.448Z,9.88
2019-05-16T16:43:31.814Z,9.50
2019-05-16T16:46:13.015Z,9.30
2019-05-16T16:48:43.471Z,8.93
2019-05-16T16:51:17.918Z,9.00
2019-05-16T16:53:52.175Z,9.03
2019-05-16T16:56:27.449Z,9.30
2019-05-16T16:59:03.282Z,9.13
2019-05-16T17:01:37.683Z,8.98
2019-05-16T17:04:11.989Z,8.95
2019-05-16T17:06:46.979Z,8.93
2019-05-16T17:09:21.101Z,10.20
2019-05-16T17:11:57.120Z,10.05
2019-05-16T17:14:31.301Z,10.93
2019-05-16T17:17:07.039Z,9.85
2019-05-16T17:19:44.067Z,9.45
2019-05-16T17:22:20.929Z,8.60
2019-05-16T17:24:56.520Z,9.28
2019-05-16T17:27:30.288Z,9.28
2019-05-16T17:30:07.231Z,9.10
2019-05-16T17:32:43.698Z,8.13
2019-05-16T17:35:19.170Z,9.18
2019-05-16T17:37:53.597Z,8.48
2019-05-16T17:40:38.482Z,7.72
2019-05-16T17:43:13.026Z,7.90
2019-05-16T17:45:47.308Z,7.90
2019-05-16T17:48:21.641Z,7.80
2019-05-16T17:50:57.024Z,7.72
2019-05-16T17:53:33.384Z,7.75
2019-05-16T17:56:08.068Z,7.45
2019-05-16T17:58:49.389Z,7.87
2019-05-16T18:01:23.694Z,7.47
2019-05-16T18:03:58.323Z,7.10
2019-05-16T18:06:32.508Z,7.33
2019-05-16T18:09:07.490Z,7.70
2019-05-16T18:11:41.713Z,7.40
2019-05-16T18:14:17.150Z,6.87
2019-05-16T18:16:58.541Z,7.50
2019-05-16T18:19:27.858Z,6.87
2019-05-16T18:22:01.925Z,6.90
2019-05-16T18:24:36.917Z,6.60
2019-05-16T18:27:12.465Z,6.58
2019-05-16T18:29:47.121Z,7.12
2019-05-16T18:32:21.485Z,7.00
2019-05-16T18:34:56.422Z,6.28
2019-05-16T18:37:33.295Z,6.58
2019-05-16T18:40:07.337Z,6.75
2019-05-16T18:42:41.643Z,6.47
2019-05-16T18:45:16.619Z,6.37
2019-05-16T18:47:50.989Z,6.55
2019-05-16T18:50:26.588Z,6.37
2019-05-16T18:53:00.721Z,6.40
2019-05-16T18:55:38.113Z,6.40
2019-05-16T18:58:12.384Z,5.75
2019-05-16T19:00:46.831Z,6.58
2019-05-16T19:03:21.216Z,7.33
2019-05-16T19:05:57.150Z,7.05
2019-05-16T19:08:31.571Z,6.85
2019-05-16T19:11:07.431Z,6.95
2019-05-16T19:13:41.914Z,6.55
2019-05-16T19:16:16.997Z,7.33
2019-05-16T19:18:51.349Z,7.28
2019-05-16T19:21:26.219Z,6.95
2019-05-16T19:24:00.619Z,7.10
2019-05-16T19:26:34.521Z,7.00
2019-05-16T19:29:08.710Z,7.35
2019-05-16T19:31:46.414Z,6.78
2019-05-16T19:34:20.016Z,7.37
2019-05-16T19:36:57.381Z,7.30
2019-05-16T19:39:31.161Z,8.00
2019-05-16T19:42:06.461Z,7.53
2019-05-16T19:44:40.782Z,7.85
2019-05-16T19:47:14.987Z,7.10
2019-05-16T19:49:49.126Z,7.03
2019-05-16T19:52:23.626Z,7.33
2019-05-16T19:54:57.778Z,7.33
2019-05-16T19:57:32.133Z,7.15
2019-05-16T20:00:06.650Z,7.50
2019-05-16T20:02:41.132Z,6.95
2019-05-16T20:05:17.049Z,6.62
2019-05-16T20:07:52.969Z,7.03
2019-05-16T20:10:27.867Z,7.20
2019-05-16T20:13:02.373Z,6.85
2019-05-16T20:15:36.959Z,7.62
2019-05-16T20:18:11.392Z,7.20
2019-05-16T20:20:47.231Z,7.40
2019-05-16T20:23:21.803Z,6.75
2019-05-16T20:25:57.154Z,6.85
2019-05-16T20:28:31.588Z,7.28
2019-05-16T20:31:07.878Z,6.78
2019-05-16T20:33:42.346Z,7.10
2019-05-16T20:36:17.335Z,7.10
2019-05-16T20:38:51.692Z,6.97
2019-05-16T20:41:27.342Z,7.28
2019-05-16T20:44:01.711Z,7.10
2019-05-16T20:46:36.074Z,7.20
2019-05-16T20:49:10.093Z,7.03
2019-05-16T20:51:46.611Z,7.12
2019-05-16T20:54:20.848Z,7.15
2019-05-16T20:56:57.426Z,7.00
2019-05-16T20:59:31.590Z,6.70
2019-05-16T21:02:06.858Z,7.03
2019-05-16T21:04:41.432Z,7.00
2019-05-16T21:07:17.191Z,7.58
2019-05-16T21:09:51.639Z,8.13
2019-05-16T21:12:26.568Z,7.62
2019-05-16T21:15:00.869Z,7.83
2019-05-16T21:17:35.074Z,7.22
2019-05-16T21:20:09.665Z,7.70
2019-05-16T21:22:43.964Z,7.42
2019-05-16T21:25:18.917Z,7.70
2019-05-16T21:27:53.072Z,7.55
2019-05-16T21:30:27.476Z,7.33
2019-05-16T21:33:01.816Z,7.50
2019-05-16T21:35:36.488Z,7.70
2019-05-16T21:38:10.890Z,7.33
2019-05-16T21:40:45.149Z,7.10
2019-05-16T21:43:19.368Z,7.80
2019-05-16T21:45:53.579Z,7.62
2019-05-16T21:48:28.035Z,8.25
2019-05-16T21:51:03.485Z,7.37
2019-05-16T21:53:37.766Z,8.25
2019-05-16T21:56:12.085Z,8.03
2019-05-16T21:58:47.353Z,7.75
2019-05-16T22:01:26.596Z,7.92
2019-05-16T22:04:00.250Z,8.13
2019-05-16T22:06:36.597Z,7.60
2019-05-16T22:09:11.139Z,8.43
2019-05-16T22:11:46.650Z,7.53
2019-05-16T22:14:24.774Z,7.97
2019-05-16T22:16:58.890Z,7.75
2019-05-16T22:19:33.122Z,7.95
2019-05-16T22:22:07.525Z,8.23
2019-05-16T22:24:41.852Z,7.50
2019-05-16T22:27:17.355Z,7.87
2019-05-16T22:29:51.906Z,8.23
2019-05-16T22:32:27.165Z,7.92
2019-05-16T22:35:03.286Z,8.23
2019-05-16T22:37:49.327Z,8.40
2019-05-16T22:40:14.027Z,7.87
2019-05-16T22:42:49.199Z,7.80
2019-05-16T22:45:23.522Z,8.40
2019-05-16T22:47:57.852Z,7.95
2019-05-16T22:50:32.131Z,7.75
2019-05-16T22:53:06.575Z,8.08
2019-05-16T22:55:40.823Z,8.03
2019-05-16T22:58:16.398Z,8.18
2019-05-16T23:00:50.796Z,7.87
2019-05-16T23:03:26.748Z,7.78
2019-05-16T23:06:00.966Z,8.50
2019-05-16T23:08:36.477Z,7.80
2019-05-16T23:11:10.825Z,8.10
2019-05-16T23:13:46.277Z,7.97
2019-05-16T23:16:21.411Z,7.92
2019-05-16T23:18:57.150Z,7.83
2019-05-16T23:21:31.596Z,7.60
2019-05-16T23:24:06.695Z,7.75
2019-05-16T23:26:42.181Z,8.00
2019-05-16T23:29:16.986Z,7.62
2019-05-16T23:31:51.376Z,7.87
2019-05-16T23:34:26.578Z,8.15
2019-05-16T23:37:02.095Z,8.03
2019-05-16T23:39:37.883Z,9.23
2019-05-16T23:42:12.079Z,8.00
2019-05-16T23:44:47.368Z,8.03
2019-05-16T23:47:21.732Z,8.33
2019-05-16T23:49:56.810Z,8.50
2019-05-16T23:52:31.336Z,8.25
2019-05-16T23:55:08.149Z,8.68
2019-05-16T23:57:41.740Z,8.55
